createdAt,value
2019-01-09T00:01:38.553Z,97733.35
2019-01-09T00:04:10.565Z,97732.47
2019-01-09T00:06:42.567Z,97722.32
2019-01-09T00:09:14.568Z,97713.38
2019-01-09T00:11:46.946Z,97700.63
2019-01-09T00:14:18.922Z,97711.09
2019-01-09T00:16:50.943Z,97722.50
2019-01-09T00:19:22.930Z,97718.85
2019-01-09T00:21:54.955Z,97716.08
2019-01-09T00:24:26.937Z,97729.20
2019-01-09T00:26:58.945Z,97717.45
2019-01-09T00:29:30.908Z,97710.11
2019-01-09T00:32:02.874Z,97715.31
2019-01-09T00:34:34.879Z,97710.50
2019-01-09T00:37:06.829Z,97714.28
2019-01-09T00:39:38.820Z,97704.46
2019-01-09T00:42:10.831Z,97699.52
2019-01-09T00:44:42.843Z,97693.94
2019-01-09T00:47:14.806Z,97684.84
2019-01-09T00:49:46.740Z,97673.71
2019-01-09T00:52:18.733Z,97676.63
2019-01-09T00:54:50.721Z,97682.70
2019-01-09T00:57:22.713Z,97679.30
2019-01-09T00:59:54.702Z,97678.91
2019-01-09T01:03:11.331Z,97674.73
2019-01-09T01:06:25.196Z,97685.72
2019-01-09T01:09:13.960Z,97684.11
2019-01-09T01:12:23.689Z,97685.13
2019-01-09T01:15:39.681Z,97674.14
2019-01-09T01:18:49.593Z,97667.47
2019-01-09T01:21:26.406Z,97678.83
2019-01-09T01:24:36.149Z,97675.93
2019-01-09T01:27:36.459Z,97675.42
2019-01-09T01:30:36.130Z,97677.19
2019-01-09T01:33:50.797Z,97663.30
2019-01-09T01:36:54.088Z,97647.28
2019-01-09T01:39:59.835Z,97655.48
2019-01-09T01:43:22.937Z,97649.56
2019-01-09T01:46:39.782Z,97650.55
2019-01-09T01:49:51.314Z,97649.41
2019-01-09T01:52:51.293Z,97639.83
2019-01-09T01:56:18.087Z,97647.13
2019-01-09T01:59:06.063Z,97649.05
2019-01-09T02:02:19.123Z,97654.59
2019-01-09T02:05:14.418Z,97653.20
2019-01-09T02:08:33.259Z,97661.79
2019-01-09T02:11:37.156Z,97668.73
2019-01-09T02:14:52.965Z,97655.08
2019-01-09T02:17:34.073Z,97661.54
2019-01-09T02:20:36.402Z,97649.91
2019-01-09T02:23:39.061Z,97639.71
2019-01-09T02:26:54.507Z,97624.80
2019-01-09T02:29:55.029Z,97634.52
2019-01-09T02:32:33.327Z,97642.97
2019-01-09T02:35:05.341Z,97641.33
2019-01-09T02:37:37.376Z,97630.87
2019-01-09T02:40:09.373Z,97639.05
2019-01-09T02:42:41.377Z,97644.51
2019-01-09T02:45:13.354Z,97632.38
2019-01-09T02:47:45.344Z,97620.25
2019-01-09T02:50:17.327Z,97628.84
2019-01-09T02:52:49.354Z,97616.72
2019-01-09T02:55:21.325Z,97609.52
2019-01-09T02:57:56.911Z,97621.27
2019-01-09T03:00:27.191Z,97622.25
2019-01-09T03:02:59.249Z,97618.47
2019-01-09T03:05:31.196Z,97620.99
2019-01-09T03:08:03.193Z,97622.25
2019-01-09T03:10:35.195Z,97621.27
2019-01-09T03:13:07.191Z,97618.61
2019-01-09T03:15:39.196Z,97620.25
2019-01-09T03:18:11.186Z,97629.36
2019-01-09T03:20:43.163Z,97617.50
2019-01-09T03:23:15.140Z,97608.39
2019-01-09T03:25:47.158Z,97607.41
2019-01-09T03:28:19.138Z,97604.10
2019-01-09T03:30:51.170Z,97612.03
2019-01-09T03:33:23.127Z,97601.44
2019-01-09T03:35:55.142Z,97599.16
2019-01-09T03:38:27.202Z,97605.59
2019-01-09T03:40:59.193Z,97599.28
2019-01-09T03:43:31.144Z,97600.29
2019-01-09T03:46:03.138Z,97592.98
2019-01-09T03:48:35.117Z,97580.89
2019-01-09T03:51:07.090Z,97586.20
2019-01-09T03:53:39.056Z,97582.02
2019-01-09T03:56:11.047Z,97581.89
2019-01-09T03:58:43.067Z,97581.28
2019-01-09T04:01:15.007Z,97573.31
2019-01-09T04:03:46.977Z,97579.02
2019-01-09T04:06:18.964Z,97572.72
2019-01-09T04:08:50.937Z,97576.09
2019-01-09T04:11:22.938Z,97566.52
2019-01-09T04:13:54.883Z,97562.60
2019-01-09T04:16:26.865Z,97567.02
2019-01-09T04:18:58.831Z,97564.88
2019-01-09T04:21:30.855Z,97563.48
2019-01-09T04:24:02.828Z,97549.59
2019-01-09T04:26:34.888Z,97547.10
2019-01-09T04:29:06.909Z,97549.35
2019-01-09T04:31:38.913Z,97543.31
2019-01-09T04:34:10.865Z,97545.70
2019-01-09T04:36:51.139Z,97546.83
2019-01-09T04:39:16.760Z,97541.31
2019-01-09T04:41:48.757Z,97540.03
2019-01-09T04:44:20.763Z,97537.26
2019-01-09T04:46:52.761Z,97532.07
2019-01-09T04:49:24.795Z,97531.44
2019-01-09T04:51:56.805Z,97533.19
2019-01-09T04:54:28.873Z,97520.72
2019-01-09T04:57:00.863Z,97524.36
2019-01-09T04:59:32.961Z,97508.09
2019-01-09T05:02:04.926Z,97504.70
2019-01-09T05:04:36.890Z,97518.19
2019-01-09T05:07:08.887Z,97517.56
2019-01-09T05:09:40.851Z,97519.56
2019-01-09T05:12:12.847Z,97514.02
2019-01-09T05:14:44.834Z,97521.34
2019-01-09T05:17:16.817Z,97513.67
2019-01-09T05:19:48.859Z,97508.48
2019-01-09T05:22:20.850Z,97518.19
2019-01-09T05:24:52.857Z,97524.75
2019-01-09T05:27:24.830Z,97515.80
2019-01-09T05:29:56.866Z,97523.77
2019-01-09T05:32:28.816Z,97523.13
2019-01-09T05:35:00.812Z,97529.67
2019-01-09T05:37:32.785Z,97543.33
2019-01-09T05:40:04.828Z,97555.66
2019-01-09T05:42:36.785Z,97556.92
2019-01-09T05:45:08.766Z,97539.66
2019-01-09T05:47:40.733Z,97550.26
2019-01-09T05:50:12.714Z,97554.16
2019-01-09T05:52:44.661Z,97553.53
2019-01-09T05:55:16.667Z,97546.08
2019-01-09T05:57:48.617Z,97545.33
2019-01-09T06:00:20.613Z,97555.91
2019-01-09T06:02:52.584Z,97543.28
2019-01-09T06:05:24.599Z,97540.77
2019-01-09T06:07:56.554Z,97539.73
2019-01-09T06:10:28.563Z,97550.09
2019-01-09T06:13:00.532Z,97547.05
2019-01-09T06:15:32.530Z,97545.91
2019-01-09T06:18:04.482Z,97551.35
2019-01-09T06:20:36.514Z,97555.53
2019-01-09T06:23:08.523Z,97558.44
2019-01-09T06:25:40.710Z,97566.47
2019-01-09T06:28:12.734Z,97581.81
2019-01-09T06:30:44.793Z,97569.83
2019-01-09T06:33:16.745Z,97556.52
2019-01-09T06:35:48.729Z,97566.64
2019-01-09T06:38:20.723Z,97569.16
2019-01-09T06:40:52.727Z,97560.34
2019-01-09T06:43:24.704Z,97565.41
2019-01-09T06:45:56.670Z,97571.30
2019-01-09T06:48:28.683Z,97573.33
2019-01-09T06:51:00.675Z,97573.46
2019-01-09T06:53:32.661Z,97580.55
2019-01-09T06:56:04.748Z,97578.52
2019-01-09T06:58:36.847Z,97582.41
2019-01-09T07:01:08.811Z,97579.53
2019-01-09T07:03:40.798Z,97581.49
2019-01-09T07:06:12.761Z,97578.80
2019-01-09T07:08:44.738Z,97585.91
2019-01-09T07:11:16.720Z,97584.66
2019-01-09T07:13:48.728Z,97586.92
2019-01-09T07:16:20.685Z,97589.55
2019-01-09T07:18:52.701Z,97585.37
2019-01-09T07:21:24.696Z,97585.14
2019-01-09T07:23:56.716Z,97597.00
2019-01-09T07:26:28.672Z,97594.20
2019-01-09T07:29:00.689Z,97594.23
2019-01-09T07:31:32.735Z,97593.97
2019-01-09T07:34:04.727Z,97598.77
2019-01-09T07:36:36.697Z,97605.33
2019-01-09T07:39:08.719Z,97606.33
2019-01-09T07:41:40.728Z,97611.66
2019-01-09T07:44:12.726Z,97603.95
2019-01-09T07:46:44.688Z,97604.45
2019-01-09T07:49:16.667Z,97604.45
2019-01-09T07:51:48.633Z,97601.33
2019-01-09T07:54:20.648Z,97612.52
2019-01-09T07:56:52.623Z,97608.00
2019-01-09T07:59:24.631Z,97606.48
2019-01-09T08:01:56.621Z,97604.70
2019-01-09T08:04:28.613Z,97602.54
2019-01-09T08:07:00.589Z,97607.33
2019-01-09T08:09:32.599Z,97600.78
2019-01-09T08:12:04.568Z,97599.24
2019-01-09T08:14:36.564Z,97602.26
2019-01-09T08:17:09.380Z,97601.91
2019-01-09T08:19:41.359Z,97600.49
2019-01-09T08:22:13.368Z,97604.28
2019-01-09T08:24:45.358Z,97605.40
2019-01-09T08:27:17.357Z,97612.85
2019-01-09T08:29:49.374Z,97604.76
2019-01-09T08:32:21.373Z,97608.92
2019-01-09T08:34:53.351Z,97610.42
2019-01-09T08:37:25.351Z,97610.83
2019-01-09T08:39:57.336Z,97611.04
2019-01-09T08:42:29.631Z,97614.09
2019-01-09T08:45:01.748Z,97613.32
2019-01-09T08:47:33.733Z,97613.06
2019-01-09T08:50:07.034Z,97621.41
2019-01-09T08:52:39.055Z,97620.52
2019-01-09T08:55:11.036Z,97628.33
2019-01-09T08:57:43.047Z,97627.17
2019-01-09T09:00:15.027Z,97634.98
2019-01-09T09:02:47.034Z,97641.52
2019-01-09T09:05:19.043Z,97655.59
2019-01-09T09:08:00.932Z,97662.39
2019-01-09T09:10:32.914Z,97670.11
2019-01-09T09:13:04.922Z,97681.25
2019-01-09T09:15:36.909Z,97679.95
2019-01-09T09:18:08.910Z,97676.91
2019-01-09T09:20:40.886Z,97671.64
2019-01-09T09:23:12.914Z,97679.69
2019-01-09T09:25:44.898Z,97678.47
2019-01-09T09:28:16.925Z,97678.09
2019-01-09T09:30:48.907Z,97689.41
2019-01-09T09:33:20.912Z,97683.30
2019-01-09T09:35:52.871Z,97692.13
2019-01-09T09:38:26.502Z,97695.91
2019-01-09T09:40:58.509Z,97694.45
2019-01-09T09:43:30.515Z,97704.79
2019-01-09T09:46:02.583Z,97707.98
2019-01-09T09:48:34.615Z,97705.84
2019-01-09T09:51:06.590Z,97716.75
2019-01-09T09:53:38.603Z,97707.66
2019-01-09T09:56:10.600Z,97711.73
2019-01-09T09:58:42.743Z,97711.99
2019-01-09T10:01:14.702Z,97712.76
2019-01-09T10:03:46.697Z,97718.32
2019-01-09T10:06:18.700Z,97711.52
2019-01-09T10:08:50.677Z,97715.55
2019-01-09T10:11:22.703Z,97718.48
2019-01-09T10:13:54.705Z,97716.48
2019-01-09T10:16:26.713Z,97718.25
2019-01-09T10:18:58.694Z,97718.44
2019-01-09T10:21:30.702Z,97709.26
2019-01-09T10:24:02.687Z,97715.56
2019-01-09T10:26:34.722Z,97714.94
2019-01-09T10:29:06.821Z,97712.58
2019-01-09T10:31:38.866Z,97706.73
2019-01-09T10:34:10.850Z,97701.19
2019-01-09T10:36:42.848Z,97711.40
2019-01-09T10:39:14.847Z,97706.27
2019-01-09T10:41:46.845Z,97716.00
2019-01-09T10:44:19.087Z,97707.67
2019-01-09T10:46:51.173Z,97712.56
2019-01-09T10:49:23.155Z,97703.83
2019-01-09T10:51:55.172Z,97709.25
2019-01-09T10:54:28.213Z,97707.77
2019-01-09T10:57:00.259Z,97707.44
2019-01-09T10:59:32.259Z,97706.58
2019-01-09T11:02:04.369Z,97704.81
2019-01-09T11:04:36.390Z,97706.31
2019-01-09T11:07:08.436Z,97706.58
2019-01-09T11:09:40.429Z,97717.69
2019-01-09T11:12:12.424Z,97716.05
2019-01-09T11:14:44.451Z,97711.88
2019-01-09T11:17:16.448Z,97707.96
2019-01-09T11:19:48.412Z,97710.27
2019-01-09T11:22:20.577Z,97712.90
2019-01-09T11:24:52.512Z,97711.61
2019-01-09T11:27:24.567Z,97713.27
2019-01-09T11:29:56.563Z,97709.64
2019-01-09T11:32:28.555Z,97715.95
2019-01-09T11:35:00.581Z,97709.50
2019-01-09T11:37:32.622Z,97708.88
2019-01-09T11:40:08.540Z,97699.02
2019-01-09T11:42:40.574Z,97700.28
2019-01-09T11:45:14.983Z,97699.50
2019-01-09T11:47:47.014Z,97692.92
2019-01-09T11:50:19.054Z,97700.48
2019-01-09T11:52:51.125Z,97692.66
2019-01-09T11:55:23.127Z,97691.77
2019-01-09T11:57:55.176Z,97685.73
2019-01-09T12:00:28.041Z,97684.20
2019-01-09T12:03:00.170Z,97683.40
2019-01-09T12:05:32.199Z,97683.76
2019-01-09T12:08:04.188Z,97682.23
2019-01-09T12:10:36.227Z,97682.11
2019-01-09T12:13:08.221Z,97671.20
2019-01-09T12:15:40.269Z,97665.90
2019-01-09T12:18:12.251Z,97663.01
2019-01-09T12:20:44.322Z,97661.37
2019-01-09T12:23:16.320Z,97663.14
2019-01-09T12:25:48.344Z,97660.59
2019-01-09T12:28:20.343Z,97666.96
2019-01-09T12:30:52.455Z,97670.30
2019-01-09T12:33:24.466Z,97671.27
2019-01-09T12:35:56.496Z,97680.64
2019-01-09T12:38:28.521Z,97674.43
2019-01-09T12:41:00.554Z,97670.56
2019-01-09T12:43:32.577Z,97673.08
2019-01-09T12:46:04.687Z,97673.36
2019-01-09T12:48:36.689Z,97671.27
2019-01-09T12:51:08.698Z,97673.14
2019-01-09T12:53:40.709Z,97681.00
2019-01-09T12:56:12.758Z,97675.69
2019-01-09T12:58:44.745Z,97680.80
2019-01-09T13:01:16.819Z,97677.14
2019-01-09T13:03:48.812Z,97675.77
2019-01-09T13:06:20.845Z,97683.34
2019-01-09T13:08:52.881Z,97683.21
2019-01-09T13:11:24.863Z,97686.38
2019-01-09T13:13:56.915Z,97685.73
2019-01-09T13:16:28.906Z,97694.91
2019-01-09T13:19:00.923Z,97686.72
2019-01-09T13:21:32.971Z,97700.25
2019-01-09T13:24:04.998Z,97699.77
2019-01-09T13:26:37.123Z,97698.47
2019-01-09T13:29:09.104Z,97703.61
2019-01-09T13:31:41.122Z,97703.23
2019-01-09T13:34:13.163Z,97706.69
2019-01-09T13:36:45.178Z,97705.58
2019-01-09T13:39:17.217Z,97702.15
2019-01-09T13:41:49.246Z,97697.11
2019-01-09T13:44:21.275Z,97700.89
2019-01-09T13:46:53.288Z,97701.29
2019-01-09T13:49:25.358Z,97700.15
2019-01-09T13:51:57.393Z,97707.48
2019-01-09T13:54:29.455Z,97717.32
2019-01-09T13:57:01.525Z,97718.22
2019-01-09T13:59:33.570Z,97716.61
2019-01-09T14:02:05.586Z,97720.88
2019-01-09T14:04:37.601Z,97716.73
2019-01-09T14:07:09.611Z,97718.64
2019-01-09T14:09:41.652Z,97718.68
2019-01-09T14:12:13.680Z,97729.92
2019-01-09T14:14:45.688Z,97724.64
2019-01-09T14:17:17.695Z,97727.14
2019-01-09T14:19:49.750Z,97731.04
2019-01-09T14:22:21.773Z,97737.09
2019-01-09T14:24:53.793Z,97736.73
2019-01-09T14:27:25.817Z,97746.45
2019-01-09T14:29:57.891Z,97746.75
2019-01-09T14:32:29.897Z,97740.05
2019-01-09T14:35:01.965Z,97752.92
2019-01-09T14:37:33.939Z,97749.11
2019-01-09T14:40:06.872Z,97747.11
2019-01-09T14:42:38.913Z,97753.10
2019-01-09T14:45:11.479Z,97758.23
2019-01-09T14:47:43.483Z,97753.89
2019-01-09T14:50:17.549Z,97757.62
2019-01-09T14:52:49.600Z,97759.05
2019-01-09T14:55:21.661Z,97763.55
2019-01-09T14:57:53.697Z,97768.48
2019-01-09T15:00:26.932Z,97767.87
2019-01-09T15:02:58.968Z,97773.30
2019-01-09T15:05:31.005Z,97769.63
2019-01-09T15:08:03.050Z,97773.38
2019-01-09T15:10:35.159Z,97781.88
2019-01-09T15:13:07.305Z,97783.60
2019-01-09T15:15:39.348Z,97781.30
2019-01-09T15:18:11.411Z,97787.11
2019-01-09T15:20:43.523Z,97788.14
2019-01-09T15:23:15.608Z,97789.94
2019-01-09T15:25:49.053Z,97797.59
2019-01-09T15:28:21.676Z,97799.30
2019-01-09T15:30:53.733Z,97800.79
2019-01-09T15:33:25.811Z,97800.41
2019-01-09T15:35:57.874Z,97807.09
2019-01-09T15:38:29.852Z,97810.38
2019-01-09T15:41:01.910Z,97810.80
2019-01-09T15:43:33.965Z,97815.41
2019-01-09T15:46:06.021Z,97819.58
2019-01-09T15:48:38.073Z,97824.01
2019-01-09T15:51:10.079Z,97825.27
2019-01-09T15:53:42.258Z,97823.40
2019-01-09T15:56:14.310Z,97829.70
2019-01-09T15:58:46.372Z,97829.81
2019-01-09T16:01:18.429Z,97830.31
2019-01-09T16:03:50.483Z,97827.52
2019-01-09T16:06:22.512Z,97829.39
2019-01-09T16:08:54.556Z,97835.62
2019-01-09T16:11:26.612Z,97842.31
2019-01-09T16:13:58.680Z,97845.70
2019-01-09T16:16:30.726Z,97852.98
2019-01-09T16:19:02.895Z,97850.86
2019-01-09T16:21:34.915Z,97853.30
2019-01-09T16:24:06.997Z,97859.94
2019-01-09T16:26:39.012Z,97863.07
2019-01-09T16:29:11.075Z,97859.24
2019-01-09T16:31:43.092Z,97860.23
2019-01-09T16:34:15.142Z,97865.05
2019-01-09T16:36:47.151Z,97863.62
2019-01-09T16:39:19.229Z,97866.76
2019-01-09T16:41:51.270Z,97867.89
2019-01-09T16:44:23.335Z,97875.95
2019-01-09T16:46:55.364Z,97869.78
2019-01-09T16:49:27.975Z,97869.50
2019-01-09T16:52:01.406Z,97870.48
2019-01-09T16:54:33.510Z,97869.33
2019-01-09T16:57:05.523Z,97878.53
2019-01-09T16:59:37.662Z,97884.02
2019-01-09T17:02:09.807Z,97879.96
2019-01-09T17:04:41.865Z,97885.11
2019-01-09T17:07:13.959Z,97881.38
2019-01-09T17:09:46.007Z,97882.69
2019-01-09T17:12:18.072Z,97884.83
2019-01-09T17:14:50.075Z,97885.59
2019-01-09T17:17:22.109Z,97892.66
2019-01-09T17:19:54.142Z,97894.61
2019-01-09T17:22:26.220Z,97892.38
2019-01-09T17:24:58.259Z,97892.19
2019-01-09T17:27:30.322Z,97889.77
2019-01-09T17:30:24.614Z,97889.61
2019-01-09T17:32:56.694Z,97897.27
2019-01-09T17:35:28.744Z,97900.44
2019-01-09T17:38:00.776Z,97908.38
2019-01-09T17:40:40.704Z,97908.81
2019-01-09T17:43:06.872Z,97918.38
2019-01-09T17:45:38.973Z,97914.39
2019-01-09T17:48:11.023Z,97916.30
2019-01-09T17:50:43.419Z,97920.84
2019-01-09T17:53:15.493Z,97919.36
2019-01-09T17:55:47.560Z,97921.22
2019-01-09T17:58:19.694Z,97920.52
2019-01-09T18:00:52.045Z,97927.41
2019-01-09T18:03:24.110Z,97933.93
2019-01-09T18:05:56.190Z,97930.69
2019-01-09T18:08:28.272Z,97929.27
2019-01-09T18:11:00.352Z,97932.67
2019-01-09T18:13:32.442Z,97934.90
2019-01-09T18:16:04.634Z,97931.12
2019-01-09T18:18:36.756Z,97931.28
2019-01-09T18:21:08.780Z,97930.75
2019-01-09T18:23:40.872Z,97936.23
2019-01-09T18:26:12.993Z,97937.13
2019-01-09T18:28:46.512Z,97937.30
2019-01-09T18:31:43.617Z,97945.41
2019-01-09T18:34:42.810Z,97946.48
2019-01-09T18:37:38.050Z,97957.27
2019-01-09T18:40:48.018Z,97955.60
2019-01-09T18:43:37.074Z,97947.95
2019-01-09T18:46:36.071Z,97958.37
2019-01-09T18:49:58.619Z,97960.67
2019-01-09T18:52:55.328Z,97965.13
2019-01-09T18:55:27.441Z,97965.58
2019-01-09T18:57:59.491Z,97969.75
2019-01-09T19:00:31.603Z,97966.39
2019-01-09T19:03:03.717Z,97971.23
2019-01-09T19:05:35.808Z,97970.41
2019-01-09T19:08:07.947Z,97968.33
2019-01-09T19:10:39.988Z,97975.51
2019-01-09T19:13:12.014Z,97974.71
2019-01-09T19:15:44.164Z,97979.67
2019-01-09T19:18:16.228Z,97988.27
2019-01-09T19:20:48.375Z,97992.16
2019-01-09T19:23:20.388Z,97994.67
2019-01-09T19:25:52.473Z,98002.31
2019-01-09T19:28:24.575Z,97999.95
2019-01-09T19:30:56.725Z,98001.72
2019-01-09T19:33:28.846Z,98010.02
2019-01-09T19:36:00.887Z,98012.59
2019-01-09T19:38:33.043Z,98022.95
2019-01-09T19:41:05.202Z,98021.85
2019-01-09T19:43:37.280Z,98020.22
2019-01-09T19:46:09.321Z,98030.20
2019-01-09T19:48:41.456Z,98024.75
2019-01-09T19:51:17.903Z,98028.34
2019-01-09T19:53:47.775Z,98033.17
2019-01-09T19:56:19.777Z,98028.89
2019-01-09T19:58:51.841Z,98031.03
2019-01-09T20:01:23.848Z,98040.88
2019-01-09T20:03:56.056Z,98037.98
2019-01-09T20:06:28.114Z,98044.77
2019-01-09T20:09:00.219Z,98040.33
2019-01-09T20:11:32.253Z,98041.39
2019-01-09T20:14:04.586Z,98045.30
2019-01-09T20:16:36.814Z,98038.20
2019-01-09T20:19:09.008Z,98049.69
2019-01-09T20:21:41.095Z,98050.11
2019-01-09T20:24:13.253Z,98046.50
2019-01-09T20:26:45.505Z,98044.19
2019-01-09T20:29:17.615Z,98048.94
2019-01-09T20:31:49.842Z,98045.29
2019-01-09T20:34:22.007Z,98050.70
2019-01-09T20:36:54.118Z,98052.50
2019-01-09T20:39:26.294Z,98048.78
2019-01-09T20:41:58.545Z,98050.56
2019-01-09T20:44:30.642Z,98056.78
2019-01-09T20:47:02.760Z,98050.27
2019-01-09T20:49:34.872Z,98053.81
2019-01-09T20:52:07.182Z,98055.66
2019-01-09T20:54:39.275Z,98056.20
2019-01-09T20:57:12.090Z,98060.56
2019-01-09T20:59:44.250Z,98062.70
2019-01-09T21:02:16.335Z,98066.77
2019-01-09T21:04:48.611Z,98069.37
2019-01-09T21:07:20.650Z,98060.34
2019-01-09T21:09:53.292Z,98072.93
2019-01-09T21:12:25.323Z,98072.64
2019-01-09T21:14:57.371Z,98070.33
2019-01-09T21:17:29.461Z,98075.50
2019-01-09T21:20:01.478Z,98075.50
2019-01-09T21:22:33.685Z,98072.55
2019-01-09T21:25:06.174Z,98082.63
2019-01-09T21:27:42.207Z,98077.88
2019-01-09T21:30:15.149Z,98082.25
2019-01-09T21:32:47.214Z,98087.16
2019-01-09T21:35:19.217Z,98084.61
2019-01-09T21:37:51.276Z,98090.02
2019-01-09T21:40:25.573Z,98089.42
2019-01-09T21:42:57.610Z,98087.87
2019-01-09T21:45:29.616Z,98090.39
2019-01-09T21:48:01.655Z,98091.57
2019-01-09T21:50:33.690Z,98094.03
2019-01-09T21:53:05.847Z,98092.78
2019-01-09T21:55:37.860Z,98096.69
2019-01-09T21:58:09.876Z,98093.07
2019-01-09T22:00:41.848Z,98098.81
2019-01-09T22:03:13.961Z,98101.58
2019-01-09T22:05:45.992Z,98105.36
2019-01-09T22:08:18.089Z,98113.42
2019-01-09T22:10:50.192Z,98119.34
2019-01-09T22:13:22.158Z,98116.31
2019-01-09T22:15:54.114Z,98118.33
2019-01-09T22:18:26.166Z,98113.34
2019-01-09T22:20:58.155Z,98120.17
2019-01-09T22:23:30.164Z,98115.05
2019-01-09T22:26:02.334Z,98114.97
2019-01-09T22:28:34.826Z,98120.89
2019-01-09T22:31:06.789Z,98129.41
2019-01-09T22:33:38.829Z,98129.03
2019-01-09T22:36:10.861Z,98130.30
2019-01-09T22:38:42.890Z,98132.22
2019-01-09T22:41:14.864Z,98131.72
2019-01-09T22:43:46.923Z,98135.12
2019-01-09T22:46:18.946Z,98135.49
2019-01-09T22:48:50.930Z,98137.05
2019-01-09T22:51:22.976Z,98136.97
2019-01-09T22:53:54.978Z,98136.53
2019-01-09T22:56:26.985Z,98135.70
2019-01-09T22:58:58.977Z,98133.35
2019-01-09T23:01:31.477Z,98128.53
2019-01-09T23:04:03.567Z,98130.45
2019-01-09T23:06:35.566Z,98132.81
2019-01-09T23:09:08.719Z,98130.97
2019-01-09T23:11:40.689Z,98133.19
2019-01-09T23:14:12.754Z,98131.80
2019-01-09T23:16:44.745Z,98135.95
2019-01-09T23:19:16.786Z,98139.35
2019-01-09T23:21:48.755Z,98140.53
2019-01-09T23:24:20.749Z,98141.63
2019-01-09T23:26:52.749Z,98140.16
2019-01-09T23:29:24.719Z,98136.45
2019-01-09T23:31:56.742Z,98137.84
2019-01-09T23:34:28.750Z,98139.86
2019-01-09T23:37:00.739Z,98140.83
2019-01-09T23:39:32.758Z,98143.80
2019-01-09T23:42:04.743Z,98137.34
2019-01-09T23:44:36.800Z,98134.98
2019-01-09T23:47:08.795Z,98133.48
2019-01-09T23:49:40.852Z,98128.74
2019-01-09T23:52:14.966Z,98144.81
2019-01-09T23:54:46.743Z,98149.13
2019-01-09T23:57:18.744Z,98151.10
2019-01-09T23:59:50.761Z,98157.61
